createdAt,value
2019-05-29T00:00:32.272Z,45.52
2019-05-29T00:01:10.367Z,46.10
2019-05-29T00:01:43.696Z,47.78
2019-05-29T00:02:18.676Z,44.83
2019-05-29T00:02:52.814Z,43.42
2019-05-29T00:03:27.801Z,40.15
2019-05-29T00:04:02.618Z,45.40
2019-05-29T00:04:36.868Z,42.08
2019-05-29T00:05:12.331Z,44.73
2019-05-29T00:05:47.134Z,41.37
2019-05-29T00:06:21.455Z,37.13
2019-05-29T00:06:56.075Z,37.40
2019-05-29T00:07:30.975Z,40.92
2019-05-29T00:08:06.303Z,38.75
2019-05-29T00:08:41.355Z,39.48
2019-05-29T00:09:16.106Z,38.42
2019-05-29T00:09:50.454Z,41.73
2019-05-29T00:10:25.303Z,42.27
2019-05-29T00:10:59.958Z,42.98
2019-05-29T00:11:34.462Z,45.00
2019-05-29T00:12:13.671Z,42.48
2019-05-29T00:12:45.971Z,42.75
2019-05-29T00:13:20.246Z,41.37
2019-05-29T00:13:55.246Z,36.08
2019-05-29T00:14:30.015Z,40.08
2019-05-29T00:15:04.427Z,39.85
2019-05-29T00:15:39.233Z,39.03
2019-05-29T00:16:14.509Z,37.25
2019-05-29T00:16:48.853Z,38.50
2019-05-29T00:17:23.494Z,36.75
2019-05-29T00:17:58.351Z,38.23
2019-05-29T00:18:32.719Z,36.80
2019-05-29T00:19:08.783Z,34.85
2019-05-29T00:19:43.662Z,32.30
2019-05-29T00:20:18.676Z,29.52
2019-05-29T00:20:53.671Z,31.30
2019-05-29T00:21:28.624Z,31.10
2019-05-29T00:22:02.989Z,30.37
2019-05-29T00:22:37.716Z,28.45
2019-05-29T00:23:12.597Z,30.10
2019-05-29T00:23:47.070Z,26.75
2019-05-29T00:24:21.774Z,28.50
2019-05-29T00:24:56.506Z,29.55
2019-05-29T00:25:30.665Z,29.92
2019-05-29T00:26:06.323Z,31.70
2019-05-29T00:26:41.365Z,31.65
2019-05-29T00:27:15.683Z,31.55
2019-05-29T00:27:50.755Z,30.85
2019-05-29T00:28:25.481Z,30.25
2019-05-29T00:28:59.947Z,30.68
2019-05-29T00:29:34.817Z,26.02
2019-05-29T00:30:10.852Z,26.23
2019-05-29T00:30:44.927Z,29.15
2019-05-29T00:31:19.862Z,28.50
2019-05-29T00:31:54.714Z,29.40
2019-05-29T00:32:28.902Z,27.77
2019-05-29T00:33:03.830Z,29.42
2019-05-29T00:33:38.447Z,26.00
2019-05-29T00:34:13.056Z,28.10
2019-05-29T00:34:48.059Z,26.57
2019-05-29T00:35:22.982Z,24.90
2019-05-29T00:35:57.176Z,26.75
2019-05-29T00:36:31.937Z,26.33
2019-05-29T00:37:06.651Z,26.20
2019-05-29T00:37:40.835Z,23.62
2019-05-29T00:38:16.664Z,17.40
2019-05-29T00:38:51.639Z,21.25
2019-05-29T00:39:26.087Z,20.30
2019-05-29T00:40:01.096Z,19.77
2019-05-29T00:40:35.906Z,17.85
2019-05-29T00:41:10.827Z,18.82
2019-05-29T00:41:45.742Z,19.87
2019-05-29T00:42:20.802Z,17.40
2019-05-29T00:42:55.377Z,18.07
2019-05-29T00:43:30.127Z,17.37
2019-05-29T00:44:05.444Z,17.02
2019-05-29T00:44:39.631Z,17.67
2019-05-29T00:45:15.718Z,18.23
2019-05-29T00:45:50.571Z,16.60
2019-05-29T00:46:24.761Z,18.20
2019-05-29T00:46:59.525Z,17.57
2019-05-29T00:47:34.424Z,15.70
2019-05-29T00:48:09.581Z,17.05
2019-05-29T00:48:44.760Z,15.55
2019-05-29T00:49:19.732Z,15.55
2019-05-29T00:49:53.893Z,15.90
2019-05-29T00:50:28.741Z,15.48
2019-05-29T00:51:03.380Z,17.42
2019-05-29T00:51:37.512Z,15.98
2019-05-29T00:52:12.413Z,14.95
2019-05-29T00:52:47.134Z,15.50
2019-05-29T00:53:21.274Z,14.58
2019-05-29T00:53:56.173Z,15.00
2019-05-29T00:54:31.066Z,15.15
2019-05-29T00:55:05.918Z,15.98
2019-05-29T00:55:40.759Z,14.28
2019-05-29T00:56:16.648Z,13.68
2019-05-29T00:56:51.073Z,13.20
2019-05-29T00:57:26.126Z,13.65
2019-05-29T00:58:00.914Z,13.85
2019-05-29T00:58:35.255Z,14.20
2019-05-29T00:59:11.052Z,14.87
2019-05-29T00:59:46.082Z,12.93
2019-05-29T01:00:20.372Z,11.63
2019-05-29T01:00:55.340Z,10.82
2019-05-29T01:01:30.170Z,10.70
2019-05-29T01:02:04.650Z,11.00
2019-05-29T01:02:39.582Z,9.38
2019-05-29T01:03:14.302Z,7.03
2019-05-29T01:03:48.460Z,8.33
2019-05-29T01:04:23.193Z,8.35
2019-05-29T01:04:57.965Z,9.23
2019-05-29T01:05:32.304Z,10.23
2019-05-29T01:06:06.927Z,8.75
2019-05-29T01:06:41.634Z,7.97
2019-05-29T01:07:20.410Z,7.87
2019-05-29T01:07:55.311Z,8.38
2019-05-29T01:08:30.094Z,9.00
2019-05-29T01:09:06.996Z,8.40
2019-05-29T01:09:41.924Z,8.70
2019-05-29T01:10:18.938Z,9.38
2019-05-29T01:10:53.202Z,7.83
2019-05-29T01:11:28.184Z,8.18
2019-05-29T01:12:03.208Z,8.98
2019-05-29T01:12:37.352Z,7.58
2019-05-29T01:13:13.144Z,7.45
2019-05-29T01:13:48.195Z,6.80
2019-05-29T01:14:22.522Z,6.78
2019-05-29T01:14:57.358Z,6.70
2019-05-29T01:15:32.235Z,7.55
2019-05-29T01:16:06.455Z,7.20
2019-05-29T01:16:41.261Z,7.47
2019-05-29T01:17:15.977Z,5.72
2019-05-29T01:17:50.321Z,6.22
2019-05-29T01:18:25.312Z,5.40
2019-05-29T01:19:20.165Z,5.87
2019-05-29T01:19:54.694Z,4.87
2019-05-29T01:20:29.615Z,4.72
2019-05-29T01:21:04.528Z,5.15
2019-05-29T01:21:40.176Z,5.50
2019-05-29T01:22:16.066Z,5.30
2019-05-29T01:22:51.207Z,4.53
2019-05-29T01:23:25.605Z,3.77
2019-05-29T01:24:00.340Z,4.47
2019-05-29T01:24:35.273Z,4.20
2019-05-29T01:25:10.008Z,5.10
2019-05-29T01:25:44.924Z,5.08
2019-05-29T01:26:20.787Z,4.30
2019-05-29T01:26:55.264Z,2.87
2019-05-29T01:27:30.192Z,3.72
2019-05-29T01:28:05.144Z,3.33
2019-05-29T01:28:39.309Z,3.67
2019-05-29T01:29:14.962Z,3.72
2019-05-29T01:29:49.847Z,3.15
2019-05-29T01:30:24.163Z,4.30
2019-05-29T01:30:59.167Z,3.40
2019-05-29T01:31:34.103Z,3.27
2019-05-29T01:32:08.516Z,3.00
2019-05-29T01:32:43.535Z,3.30
2019-05-29T01:33:20.458Z,2.87
2019-05-29T01:33:54.327Z,2.20
2019-05-29T01:34:29.037Z,2.35
2019-05-29T01:35:03.954Z,2.45
2019-05-29T01:35:38.213Z,2.35
2019-05-29T01:36:13.867Z,2.52
2019-05-29T01:36:48.911Z,2.60
2019-05-29T01:37:24.283Z,2.70
2019-05-29T01:37:59.628Z,2.58
2019-05-29T01:38:34.478Z,2.67
2019-05-29T01:39:08.809Z,2.35
2019-05-29T01:39:43.659Z,2.37
2019-05-29T01:40:24.488Z,2.05
2019-05-29T01:40:55.004Z,2.10
2019-05-29T01:41:30.021Z,2.37
2019-05-29T01:42:05.114Z,2.52
2019-05-29T01:42:39.500Z,2.45
2019-05-29T01:43:15.343Z,2.70
2019-05-29T01:43:50.189Z,2.37
2019-05-29T01:44:24.734Z,2.65
2019-05-29T01:45:07.772Z,2.27
2019-05-29T01:45:36.243Z,2.98
2019-05-29T01:46:10.542Z,2.22
2019-05-29T01:46:45.486Z,2.05
2019-05-29T01:47:21.508Z,2.05
2019-05-29T01:47:55.831Z,2.22
2019-05-29T01:48:30.718Z,2.25
2019-05-29T01:49:05.810Z,2.22
2019-05-29T01:49:39.991Z,2.10
2019-05-29T01:50:15.550Z,2.12
2019-05-29T01:50:50.314Z,2.42
2019-05-29T01:51:24.475Z,2.55
2019-05-29T01:51:59.251Z,1.80
2019-05-29T01:52:34.172Z,2.30
2019-05-29T01:53:08.438Z,2.08
2019-05-29T01:53:43.390Z,1.92
2019-05-29T01:54:18.020Z,2.10
2019-05-29T01:54:52.282Z,2.10
2019-05-29T01:55:27.988Z,2.20
2019-05-29T01:56:02.931Z,2.60
2019-05-29T01:56:37.065Z,2.12
2019-05-29T01:57:12.483Z,2.17
2019-05-29T01:57:47.274Z,2.25
2019-05-29T01:58:21.991Z,1.80
2019-05-29T01:58:57.227Z,1.80
2019-05-29T01:59:32.116Z,1.98
2019-05-29T02:00:07.492Z,2.58
2019-05-29T02:00:42.471Z,2.30
2019-05-29T02:01:18.016Z,1.52
2019-05-29T02:01:52.507Z,2.30
2019-05-29T02:02:28.255Z,1.75
2019-05-29T02:03:03.207Z,1.90
2019-05-29T02:03:37.635Z,2.05
2019-05-29T02:04:12.615Z,1.90
2019-05-29T02:04:47.333Z,1.92
2019-05-29T02:05:22.038Z,2.00
2019-05-29T02:05:57.167Z,2.10
2019-05-29T02:06:32.292Z,1.92
2019-05-29T02:07:06.998Z,2.20
2019-05-29T02:07:41.804Z,1.62
2019-05-29T02:08:17.971Z,2.10
2019-05-29T02:08:52.458Z,1.57
2019-05-29T02:09:28.373Z,1.95
2019-05-29T02:10:03.439Z,1.87
2019-05-29T02:10:37.950Z,1.77
2019-05-29T02:11:13.323Z,2.00
2019-05-29T02:11:48.147Z,2.00
2019-05-29T02:12:22.421Z,1.90
2019-05-29T02:12:57.614Z,1.60
2019-05-29T02:13:32.467Z,1.80
2019-05-29T02:14:06.864Z,1.67
2019-05-29T02:14:41.781Z,1.80
2019-05-29T02:15:26.021Z,1.67
2019-05-29T02:15:54.782Z,1.85
2019-05-29T02:16:29.643Z,1.77
2019-05-29T02:17:04.675Z,1.67
2019-05-29T02:17:39.112Z,2.00
2019-05-29T02:18:13.938Z,1.77
2019-05-29T02:18:48.882Z,1.75
2019-05-29T02:19:24.025Z,2.20
2019-05-29T02:19:59.148Z,1.98
2019-05-29T02:20:33.949Z,2.00
2019-05-29T02:21:08.174Z,2.10
2019-05-29T02:21:43.727Z,2.02
2019-05-29T02:22:18.880Z,2.20
2019-05-29T02:22:53.365Z,1.80
2019-05-29T02:23:28.367Z,2.50
2019-05-29T02:24:03.554Z,2.27
2019-05-29T02:24:37.737Z,2.35
2019-05-29T02:25:15.927Z,2.30
2019-05-29T02:25:49.784Z,2.27
2019-05-29T02:26:24.444Z,2.65
2019-05-29T02:26:59.863Z,2.15
2019-05-29T02:27:34.832Z,2.20
2019-05-29T02:28:09.379Z,2.50
2019-05-29T02:28:44.094Z,2.33
2019-05-29T02:29:19.124Z,2.50
2019-05-29T02:29:53.487Z,2.12
2019-05-29T02:30:30.688Z,2.02
2019-05-29T02:31:05.067Z,2.00
2019-05-29T02:31:39.467Z,2.30
2019-05-29T02:32:14.267Z,2.22
2019-05-29T02:32:49.045Z,2.25
2019-05-29T02:33:24.210Z,2.10
2019-05-29T02:33:59.958Z,2.30
2019-05-29T02:34:34.897Z,2.08
2019-05-29T02:35:09.435Z,1.70
2019-05-29T02:35:44.417Z,1.70
2019-05-29T02:36:20.357Z,2.25
2019-05-29T02:36:55.111Z,1.60
2019-05-29T02:37:30.056Z,1.40
2019-05-29T02:38:05.090Z,1.30
2019-05-29T02:38:39.472Z,1.55
2019-05-29T02:39:14.287Z,1.60
2019-05-29T02:39:49.291Z,1.40
2019-05-29T02:40:25.816Z,1.50
2019-05-29T02:41:00.765Z,1.05
2019-05-29T02:41:35.912Z,1.52
2019-05-29T02:42:10.582Z,1.42
2019-05-29T02:42:45.441Z,1.70
2019-05-29T02:43:21.375Z,1.90
2019-05-29T02:43:56.444Z,1.60
2019-05-29T02:44:31.303Z,2.05
2019-05-29T02:45:08.308Z,1.95
2019-05-29T02:45:53.796Z,2.15
2019-05-29T02:46:19.429Z,1.60
2019-05-29T02:46:54.563Z,2.55
2019-05-29T02:47:30.257Z,2.15
2019-05-29T02:48:05.465Z,1.55
2019-05-29T02:48:40.367Z,1.50
2019-05-29T02:49:14.579Z,1.70
2019-05-29T02:49:49.392Z,1.75
2019-05-29T02:50:26.194Z,1.70
2019-05-29T02:51:00.541Z,1.60
2019-05-29T02:51:35.523Z,1.60
2019-05-29T02:52:10.415Z,1.50
2019-05-29T02:52:44.952Z,1.50
2019-05-29T02:53:20.055Z,1.20
2019-05-29T02:53:54.927Z,1.90
2019-05-29T02:54:30.096Z,1.60
2019-05-29T02:55:07.333Z,1.62
2019-05-29T02:55:42.283Z,1.40
2019-05-29T02:56:16.418Z,1.47
2019-05-29T02:56:51.494Z,1.40
2019-05-29T02:57:26.942Z,1.30
2019-05-29T02:58:01.394Z,1.32
2019-05-29T02:58:36.241Z,1.52
2019-05-29T02:59:11.117Z,1.32
2019-05-29T02:59:45.244Z,1.30
2019-05-29T03:00:23.389Z,1.15
2019-05-29T03:00:58.641Z,1.30
2019-05-29T03:01:33.011Z,1.22
2019-05-29T03:02:08.069Z,1.12
2019-05-29T03:02:42.784Z,0.80
2019-05-29T03:03:17.303Z,0.70
2019-05-29T03:03:52.388Z,1.07
2019-05-29T03:04:28.164Z,1.10
2019-05-29T03:05:03.304Z,1.00
2019-05-29T03:05:38.203Z,0.95
2019-05-29T03:06:13.587Z,0.95
2019-05-29T03:06:47.963Z,0.98
2019-05-29T03:07:24.303Z,1.20
2019-05-29T03:07:59.652Z,0.93
2019-05-29T03:08:34.490Z,1.00
2019-05-29T03:09:09.788Z,1.05
2019-05-29T03:09:45.303Z,1.20
2019-05-29T03:10:19.710Z,1.10
2019-05-29T03:10:54.608Z,1.07
2019-05-29T03:11:31.059Z,0.95
2019-05-29T03:12:05.475Z,1.10
2019-05-29T03:12:41.236Z,1.20
2019-05-29T03:13:16.496Z,1.00
2019-05-29T03:13:51.418Z,1.20
2019-05-29T03:14:27.269Z,1.15
2019-05-29T03:15:02.412Z,0.98
2019-05-29T03:15:36.462Z,0.95
2019-05-29T03:16:12.831Z,1.40
2019-05-29T03:16:47.708Z,1.02
2019-05-29T03:17:23.519Z,1.32
2019-05-29T03:17:58.793Z,1.27
2019-05-29T03:18:34.994Z,1.00
2019-05-29T03:19:09.676Z,1.20
2019-05-29T03:19:44.334Z,1.20
2019-05-29T03:20:19.254Z,1.17
2019-05-29T03:20:53.662Z,1.22
2019-05-29T03:21:30.437Z,1.40
2019-05-29T03:22:05.214Z,1.00
2019-05-29T03:22:39.580Z,1.10
2019-05-29T03:23:14.467Z,1.15
2019-05-29T03:23:49.398Z,1.15
2019-05-29T03:24:24.471Z,1.27
2019-05-29T03:24:59.301Z,1.57
2019-05-29T03:25:35.134Z,1.20
2019-05-29T03:26:10.070Z,1.00
2019-05-29T03:26:44.929Z,1.10
2019-05-29T03:27:19.813Z,1.70
2019-05-29T03:27:54.208Z,1.17
2019-05-29T03:28:29.935Z,1.40
2019-05-29T03:29:05.388Z,1.20
2019-05-29T03:29:39.686Z,1.47
2019-05-29T03:30:14.519Z,1.20
2019-05-29T03:30:49.459Z,1.20
2019-05-29T03:31:23.837Z,1.50
2019-05-29T03:31:58.538Z,1.30
2019-05-29T03:32:42.229Z,1.32
2019-05-29T03:33:09.429Z,1.50
2019-05-29T03:33:49.024Z,1.40
2019-05-29T03:34:21.147Z,1.32
2019-05-29T03:34:55.638Z,1.50
2019-05-29T03:35:37.714Z,1.72
2019-05-29T03:36:07.270Z,2.00
2019-05-29T03:36:47.135Z,2.00
2019-05-29T03:37:18.146Z,2.12
2019-05-29T03:37:53.096Z,2.40
2019-05-29T03:38:28.345Z,1.92
2019-05-29T03:39:03.715Z,1.62
2019-05-29T03:39:38.754Z,1.70
2019-05-29T03:40:13.153Z,1.67
2019-05-29T03:40:49.178Z,1.40
2019-05-29T03:41:24.104Z,1.40
2019-05-29T03:41:58.405Z,1.90
2019-05-29T03:42:34.470Z,1.75
2019-05-29T03:43:09.405Z,1.60
2019-05-29T03:43:43.779Z,1.70
2019-05-29T03:44:18.595Z,1.37
2019-05-29T03:44:53.515Z,1.77
2019-05-29T03:45:28.950Z,1.82
2019-05-29T03:46:04.687Z,1.67
2019-05-29T03:46:45.332Z,1.50
2019-05-29T03:47:15.503Z,1.35
2019-05-29T03:47:50.400Z,1.20
2019-05-29T03:48:25.937Z,1.60
2019-05-29T03:49:00.959Z,1.62
2019-05-29T03:49:37.243Z,1.60
2019-05-29T03:50:15.627Z,1.60
2019-05-29T03:50:49.057Z,1.65
2019-05-29T03:51:23.755Z,1.70
2019-05-29T03:51:58.477Z,1.60
2019-05-29T03:52:34.670Z,1.70
2019-05-29T03:53:09.275Z,1.77
2019-05-29T03:53:44.720Z,2.20
2019-05-29T03:54:19.294Z,1.60
2019-05-29T03:54:54.305Z,1.72
2019-05-29T03:55:29.477Z,1.77
2019-05-29T03:56:04.134Z,2.00
2019-05-29T03:56:39.164Z,1.95
2019-05-29T03:57:14.024Z,1.57
2019-05-29T03:57:48.373Z,2.05
2019-05-29T03:58:23.298Z,1.70
2019-05-29T03:58:58.257Z,2.00
2019-05-29T03:59:32.791Z,1.75
2019-05-29T04:00:08.394Z,1.82
2019-05-29T04:00:46.419Z,2.20
2019-05-29T04:01:19.332Z,2.05
2019-05-29T04:01:54.457Z,2.10
2019-05-29T04:02:31.228Z,2.05
2019-05-29T04:03:05.581Z,2.02
2019-05-29T04:03:40.545Z,1.87
2019-05-29T04:04:15.443Z,1.90
2019-05-29T04:04:49.965Z,1.70
2019-05-29T04:05:24.984Z,1.85
2019-05-29T04:05:59.848Z,1.70
2019-05-29T04:06:35.611Z,1.80
2019-05-29T04:07:10.601Z,1.82
2019-05-29T04:07:45.410Z,2.00
2019-05-29T04:08:19.715Z,2.12
2019-05-29T04:08:54.693Z,2.08
2019-05-29T04:09:31.114Z,3.30
2019-05-29T04:10:07.397Z,3.80
2019-05-29T04:10:42.749Z,3.20
2019-05-29T04:11:17.526Z,3.50
2019-05-29T04:11:52.164Z,4.83
2019-05-29T04:12:27.078Z,4.87
2019-05-29T04:13:02.523Z,5.28
2019-05-29T04:13:38.734Z,5.28
2019-05-29T04:14:13.986Z,4.75
2019-05-29T04:14:49.945Z,4.00
2019-05-29T04:15:24.265Z,4.70
2019-05-29T04:16:01.656Z,5.10
2019-05-29T04:16:58.118Z,4.95
2019-05-29T04:17:15.069Z,4.22
2019-05-29T04:17:50.139Z,2.50
2019-05-29T04:18:27.600Z,3.20
2019-05-29T04:19:04.422Z,2.50
2019-05-29T04:19:39.614Z,2.50
2019-05-29T04:20:16.198Z,2.47
2019-05-29T04:20:52.336Z,1.90
2019-05-29T04:21:27.900Z,1.87
2019-05-29T04:22:09.654Z,1.65
2019-05-29T04:22:45.754Z,1.85
2019-05-29T04:23:21.518Z,1.80
2019-05-29T04:23:58.479Z,1.60
2019-05-29T04:24:34.037Z,2.00
2019-05-29T04:25:09.593Z,1.80
2019-05-29T04:25:46.216Z,1.60
2019-05-29T04:26:22.446Z,2.00
2019-05-29T04:26:58.585Z,2.62
2019-05-29T04:27:36.126Z,3.62
2019-05-29T04:28:10.969Z,3.62
2019-05-29T04:28:46.491Z,4.05
2019-05-29T04:29:21.587Z,4.58
2019-05-29T04:29:58.391Z,3.98
2019-05-29T04:30:36.300Z,4.55
2019-05-29T04:31:11.447Z,4.00
2019-05-29T04:31:45.818Z,4.80
2019-05-29T04:32:21.065Z,4.25
2019-05-29T04:32:56.106Z,4.53
2019-05-29T04:33:32.464Z,4.67
2019-05-29T04:34:07.269Z,5.12
2019-05-29T04:34:42.321Z,3.95
2019-05-29T04:35:16.566Z,3.30
2019-05-29T04:35:51.607Z,4.37
2019-05-29T04:36:26.419Z,3.77
2019-05-29T04:37:00.809Z,4.47
2019-05-29T04:37:36.901Z,4.90
2019-05-29T04:38:12.498Z,5.10
2019-05-29T04:38:46.848Z,4.72
2019-05-29T04:39:21.596Z,4.95
2019-05-29T04:39:56.468Z,4.72
2019-05-29T04:40:30.749Z,4.47
2019-05-29T04:41:06.063Z,4.10
2019-05-29T04:41:41.011Z,4.40
2019-05-29T04:42:15.561Z,3.33
2019-05-29T04:42:50.590Z,3.95
2019-05-29T04:43:26.151Z,3.40
2019-05-29T04:44:00.870Z,4.50
2019-05-29T04:44:38.199Z,3.92
2019-05-29T04:45:13.741Z,5.08
2019-05-29T04:45:48.159Z,5.00
2019-05-29T04:46:23.312Z,4.35
2019-05-29T04:47:10.247Z,4.80
2019-05-29T04:47:37.339Z,6.35
2019-05-29T04:48:13.801Z,6.22
2019-05-29T04:48:48.551Z,5.53
2019-05-29T04:49:22.988Z,6.22
2019-05-29T04:49:58.030Z,7.28
2019-05-29T04:50:33.568Z,6.55
2019-05-29T04:51:09.449Z,5.83
2019-05-29T04:51:44.639Z,6.62
2019-05-29T04:52:22.625Z,7.97
2019-05-29T04:52:57.138Z,6.65
2019-05-29T04:53:33.511Z,5.78
2019-05-29T04:54:09.128Z,5.50
2019-05-29T04:54:43.623Z,5.50
2019-05-29T04:55:18.647Z,4.92
2019-05-29T04:55:53.503Z,5.58
2019-05-29T04:56:28.758Z,5.08
2019-05-29T04:57:03.832Z,5.65
2019-05-29T04:57:39.240Z,6.45
2019-05-29T04:58:13.764Z,6.65
2019-05-29T04:58:49.013Z,6.83
2019-05-29T04:59:23.904Z,6.53
2019-05-29T04:59:58.217Z,5.83
2019-05-29T05:00:33.202Z,6.65
2019-05-29T05:01:08.060Z,7.42
2019-05-29T05:01:42.534Z,7.10
2019-05-29T05:02:17.379Z,6.97
2019-05-29T05:02:52.282Z,6.95
2019-05-29T05:03:26.552Z,6.35
2019-05-29T05:04:01.564Z,6.40
2019-05-29T05:04:37.304Z,7.17
2019-05-29T05:05:11.739Z,6.60
2019-05-29T05:05:46.673Z,6.12
2019-05-29T05:06:21.682Z,8.10
2019-05-29T05:06:56.321Z,7.58
2019-05-29T05:07:31.234Z,6.85
2019-05-29T05:08:06.183Z,8.58
2019-05-29T05:08:40.465Z,7.80
2019-05-29T05:09:15.242Z,7.47
2019-05-29T05:09:50.370Z,5.72
2019-05-29T05:10:36.230Z,6.42
2019-05-29T05:11:12.139Z,5.42
2019-05-29T05:11:47.542Z,6.10
2019-05-29T05:12:22.133Z,5.17
2019-05-29T05:12:57.197Z,6.10
2019-05-29T05:13:31.986Z,5.35
2019-05-29T05:14:06.945Z,5.35
2019-05-29T05:14:41.820Z,6.00
2019-05-29T05:15:16.802Z,6.45
2019-05-29T05:15:52.748Z,5.20
2019-05-29T05:16:27.795Z,5.10
2019-05-29T05:17:02.863Z,5.67
2019-05-29T05:17:38.021Z,5.12
2019-05-29T05:18:13.409Z,6.55
2019-05-29T05:18:48.200Z,5.72
2019-05-29T05:19:22.813Z,6.95
2019-05-29T05:19:57.714Z,6.28
2019-05-29T05:20:33.934Z,4.53
2019-05-29T05:21:08.618Z,5.65
2019-05-29T05:21:43.856Z,6.95
2019-05-29T05:22:18.945Z,5.33
2019-05-29T05:22:53.645Z,4.58
2019-05-29T05:23:29.929Z,6.00
2019-05-29T05:24:05.358Z,5.28
2019-05-29T05:24:43.449Z,5.33
2019-05-29T05:25:16.536Z,4.62
2019-05-29T05:25:51.517Z,4.30
2019-05-29T05:26:25.816Z,5.15
2019-05-29T05:27:00.924Z,5.20
2019-05-29T05:27:36.472Z,5.70
2019-05-29T05:28:11.128Z,5.10
2019-05-29T05:28:46.884Z,6.40
2019-05-29T05:29:22.237Z,6.25
2019-05-29T05:29:56.681Z,4.40
2019-05-29T05:30:32.329Z,5.42
2019-05-29T05:31:07.648Z,4.45
2019-05-29T05:31:41.997Z,5.08
2019-05-29T05:32:17.058Z,5.22
2019-05-29T05:32:52.294Z,3.37
2019-05-29T05:33:26.511Z,5.12
2019-05-29T05:34:01.636Z,4.78
2019-05-29T05:34:36.916Z,5.10
2019-05-29T05:35:14.375Z,4.70
2019-05-29T05:35:47.990Z,5.80
2019-05-29T05:36:23.046Z,5.28
2019-05-29T05:36:57.423Z,5.50
2019-05-29T05:37:32.706Z,6.12
2019-05-29T05:38:07.795Z,6.15
2019-05-29T05:38:42.487Z,5.87
2019-05-29T05:39:17.525Z,6.80
2019-05-29T05:39:52.514Z,5.75
2019-05-29T05:40:27.006Z,4.50
2019-05-29T05:41:02.952Z,5.60
2019-05-29T05:41:38.890Z,5.78
2019-05-29T05:42:13.557Z,6.28
2019-05-29T05:42:48.757Z,5.72
2019-05-29T05:43:24.680Z,6.05
2019-05-29T05:43:58.987Z,6.25
2019-05-29T05:44:34.940Z,5.80
2019-05-29T05:45:10.490Z,5.42
2019-05-29T05:45:45.089Z,6.87
2019-05-29T05:46:20.133Z,7.22
2019-05-29T05:46:55.314Z,6.60
2019-05-29T05:47:45.110Z,4.78
2019-05-29T05:48:06.630Z,6.58
2019-05-29T05:48:42.228Z,6.15
2019-05-29T05:49:16.949Z,6.42
2019-05-29T05:49:52.137Z,6.45
2019-05-29T05:50:27.414Z,6.33
2019-05-29T05:51:01.832Z,6.75
2019-05-29T05:51:39.884Z,6.90
2019-05-29T05:52:13.452Z,5.45
2019-05-29T05:52:47.928Z,5.05
2019-05-29T05:53:22.871Z,6.10
2019-05-29T05:53:58.107Z,6.00
2019-05-29T05:54:33.361Z,6.03
2019-05-29T05:55:08.698Z,6.03
2019-05-29T05:55:43.913Z,6.75
2019-05-29T05:56:18.407Z,6.95
2019-05-29T05:56:53.812Z,5.85
2019-05-29T05:57:28.994Z,6.45
2019-05-29T05:58:03.493Z,6.60
2019-05-29T05:58:39.831Z,6.53
2019-05-29T05:59:15.108Z,8.53
2019-05-29T05:59:49.579Z,8.60
2019-05-29T06:00:33.801Z,8.73
2019-05-29T06:01:08.918Z,8.65
2019-05-29T06:01:43.574Z,9.28
2019-05-29T06:02:18.509Z,7.83
2019-05-29T06:02:53.348Z,6.95
2019-05-29T06:03:27.923Z,8.50
2019-05-29T06:04:03.029Z,7.70
2019-05-29T06:04:38.251Z,8.05
2019-05-29T06:05:12.947Z,9.48
2019-05-29T06:05:47.944Z,9.33
2019-05-29T06:06:22.856Z,9.03
2019-05-29T06:06:57.355Z,8.55
2019-05-29T06:07:32.356Z,10.10
2019-05-29T06:08:07.470Z,11.18
2019-05-29T06:08:42.547Z,12.43
2019-05-29T06:09:17.710Z,12.23
2019-05-29T06:09:52.690Z,13.60
2019-05-29T06:10:27.226Z,13.48
2019-05-29T06:11:02.264Z,11.63
2019-05-29T06:11:38.326Z,9.05
2019-05-29T06:12:12.922Z,11.00
2019-05-29T06:12:47.749Z,11.35
2019-05-29T06:13:22.803Z,11.05
2019-05-29T06:13:57.127Z,10.08
2019-05-29T06:14:32.380Z,11.70
2019-05-29T06:15:07.887Z,11.63
2019-05-29T06:15:42.923Z,11.78
2019-05-29T06:16:17.979Z,8.50
2019-05-29T06:16:53.081Z,9.50
2019-05-29T06:17:27.565Z,8.60
2019-05-29T06:18:19.809Z,8.50
2019-05-29T06:18:40.565Z,9.93
2019-05-29T06:19:15.137Z,9.50
2019-05-29T06:19:50.266Z,8.10
2019-05-29T06:20:25.160Z,8.90
2019-05-29T06:20:59.394Z,8.43
2019-05-29T06:21:34.617Z,8.48
2019-05-29T06:22:09.921Z,8.63
2019-05-29T06:22:44.403Z,8.08
2019-05-29T06:23:19.366Z,7.97
2019-05-29T06:23:54.272Z,8.20
2019-05-29T06:24:28.754Z,7.53
2019-05-29T06:25:03.812Z,7.87
2019-05-29T06:25:40.404Z,8.85
2019-05-29T06:26:14.802Z,8.38
2019-05-29T06:26:49.742Z,8.80
2019-05-29T06:27:24.528Z,8.05
2019-05-29T06:27:59.221Z,7.28
2019-05-29T06:28:35.027Z,8.85
2019-05-29T06:29:10.139Z,8.00
2019-05-29T06:29:45.374Z,9.05
2019-05-29T06:30:21.749Z,8.48
2019-05-29T06:30:56.785Z,8.73
2019-05-29T06:31:31.176Z,8.20
2019-05-29T06:32:06.088Z,7.75
2019-05-29T06:32:41.549Z,6.95
2019-05-29T06:33:16.172Z,7.30
2019-05-29T06:33:51.190Z,5.97
2019-05-29T06:34:26.260Z,7.80
2019-05-29T06:35:00.776Z,7.15
2019-05-29T06:35:35.993Z,7.58
2019-05-29T06:36:11.290Z,7.10
2019-05-29T06:36:48.122Z,8.53
2019-05-29T06:37:22.521Z,8.90
2019-05-29T06:37:57.435Z,9.60
2019-05-29T06:38:31.881Z,9.35
2019-05-29T06:39:08.447Z,8.25
2019-05-29T06:39:43.913Z,10.28
2019-05-29T06:40:31.570Z,13.15
2019-05-29T06:41:06.907Z,16.27
2019-05-29T06:41:42.070Z,13.90
2019-05-29T06:42:16.581Z,10.53
2019-05-29T06:42:51.517Z,12.80
2019-05-29T06:43:27.146Z,12.88
2019-05-29T06:44:01.798Z,14.43
2019-05-29T06:44:39.393Z,12.35
2019-05-29T06:45:15.613Z,11.70
2019-05-29T06:45:50.362Z,11.45
2019-05-29T06:46:25.254Z,6.50
2019-05-29T06:47:00.403Z,7.37
2019-05-29T06:47:36.450Z,8.25
2019-05-29T06:48:14.905Z,9.18
2019-05-29T06:48:59.846Z,7.10
2019-05-29T06:49:25.879Z,3.92
2019-05-29T06:50:00.677Z,4.90
2019-05-29T06:50:37.259Z,6.65
2019-05-29T06:51:12.265Z,5.80
2019-05-29T06:51:47.527Z,3.90
2019-05-29T06:52:22.744Z,3.35
2019-05-29T06:52:57.137Z,3.77
2019-05-29T06:53:32.148Z,3.50
2019-05-29T06:54:07.564Z,3.20
2019-05-29T06:54:42.286Z,3.50
2019-05-29T06:55:17.545Z,3.10
2019-05-29T06:55:54.862Z,3.10
2019-05-29T06:56:28.777Z,2.90
2019-05-29T06:57:04.005Z,2.80
2019-05-29T06:57:40.276Z,3.12
2019-05-29T06:58:14.834Z,3.75
2019-05-29T06:58:49.685Z,3.12
2019-05-29T06:59:24.688Z,3.35
2019-05-29T06:59:58.997Z,3.47
2019-05-29T07:00:35.638Z,4.75
2019-05-29T07:01:10.975Z,4.20
2019-05-29T07:01:45.380Z,4.28
2019-05-29T07:02:20.416Z,3.87
2019-05-29T07:02:55.454Z,4.22
2019-05-29T07:03:29.969Z,4.83
2019-05-29T07:04:11.940Z,5.75
2019-05-29T07:04:42.740Z,5.70
2019-05-29T07:05:17.349Z,5.90
2019-05-29T07:05:52.967Z,5.92
2019-05-29T07:06:28.234Z,7.00
2019-05-29T07:07:02.626Z,7.65
2019-05-29T07:07:38.207Z,6.83
2019-05-29T07:08:20.888Z,7.60
2019-05-29T07:08:50.284Z,7.22
2019-05-29T07:09:25.669Z,7.75
2019-05-29T07:10:00.679Z,7.58
2019-05-29T07:10:36.389Z,9.93
2019-05-29T07:11:11.614Z,11.25
2019-05-29T07:11:47.565Z,10.68
2019-05-29T07:12:22.041Z,9.98
2019-05-29T07:12:57.038Z,8.58
2019-05-29T07:13:34.861Z,8.68
2019-05-29T07:14:08.159Z,8.75
2019-05-29T07:14:44.458Z,8.95
2019-05-29T07:15:19.797Z,11.25
2019-05-29T07:15:54.080Z,11.40
2019-05-29T07:16:43.202Z,8.68
2019-05-29T07:17:05.582Z,11.03
2019-05-29T07:17:40.415Z,9.45
2019-05-29T07:18:15.775Z,10.58
2019-05-29T07:19:45.100Z,9.60
2019-05-29T07:20:04.206Z,8.10
2019-05-29T07:20:40.607Z,9.33
2019-05-29T07:21:15.441Z,8.58
2019-05-29T07:21:50.298Z,9.38
2019-05-29T07:22:25.349Z,7.55
2019-05-29T07:22:59.578Z,7.50
2019-05-29T07:23:34.605Z,7.62
2019-05-29T07:24:09.728Z,6.75
2019-05-29T07:24:45.066Z,6.90
2019-05-29T07:25:20.042Z,8.20
2019-05-29T07:25:55.046Z,6.65
2019-05-29T07:26:29.606Z,6.72
2019-05-29T07:27:04.685Z,6.28
2019-05-29T07:27:40.828Z,8.00
2019-05-29T07:28:15.297Z,7.10
2019-05-29T07:29:07.516Z,6.67
2019-05-29T07:29:26.757Z,6.25
2019-05-29T07:30:00.966Z,6.60
2019-05-29T07:30:37.364Z,7.00
2019-05-29T07:31:12.530Z,6.40
2019-05-29T07:31:47.321Z,6.47
2019-05-29T07:32:22.262Z,7.35
2019-05-29T07:32:59.120Z,7.75
2019-05-29T07:33:33.924Z,7.12
2019-05-29T07:34:08.834Z,6.58
2019-05-29T07:34:59.453Z,7.30
2019-05-29T07:35:20.254Z,6.20
2019-05-29T07:35:55.388Z,6.60
2019-05-29T07:36:30.411Z,7.53
2019-05-29T07:37:05.012Z,7.97
2019-05-29T07:37:41.628Z,7.05
2019-05-29T07:38:16.898Z,6.92
2019-05-29T07:39:02.458Z,8.75
2019-05-29T07:39:28.072Z,8.40
2019-05-29T07:40:03.190Z,7.20
2019-05-29T07:40:38.383Z,7.55
2019-05-29T07:41:14.230Z,7.75
2019-05-29T07:41:49.444Z,7.53
2019-05-29T07:42:23.970Z,6.80
2019-05-29T07:42:59.037Z,6.05
2019-05-29T07:43:34.174Z,5.40
2019-05-29T07:44:08.725Z,5.53
2019-05-29T07:44:44.061Z,5.47
2019-05-29T07:45:19.475Z,5.47
2019-05-29T07:45:53.996Z,5.92
2019-05-29T07:46:29.162Z,7.05